Time;durP1;ratioP1;P1;durP2;ratioP2;P2;SDS_P1;SDS_P2;PMS_P1;PMS_P2;Temp;Humidity;BMP_temperature;BMP_pressure;BME280_temperature;BME280_humidity;BME280_pressure;Samples;Min_cycle;Max_cycle;Signal;HPM_P1;HPM_P2
2022/06/16 16:03:22;;;;;;;6.15;1.83;;;;;;;;;;7298869;19;50726;-81
2022/06/16 16:06:11;;;;;;;4.97;1.55;;;;;;;;;;7380266;19;20021;-82
2022/06/16 16:08:37;;;;;;;4.22;1.30;;;;;;;;;;7365135;19;20018;-82
2022/06/16 16:11:17;;;;;;;5.25;1.35;;;;;;;;;;7375924;19;20045;-86
2022/06/16 16:13:57;;;;;;;5.22;1.65;;;;;;;;;;7381970;19;20034;-86
2022/06/16 16:16:23;;;;;;;7.20;1.38;;;;;;;;;;7366988;19;20371;-83
2022/06/16 16:19:02;;;;;;;7.95;1.70;;;;;;;;;;7371181;19;20006;-84
2022/06/16 16:21:32;;;;;;;5.63;1.75;;;;;;;;;;7379153;19;20451;-83
2022/06/16 16:23:57;;;;;;;4.10;1.60;;;;;;;;;;7368082;19;20018;-83
2022/06/16 16:26:22;;;;;;;5.63;1.90;;;;;;;;;;7376592;19;20010;-85
2022/06/16 16:28:53;;;;;;;6.77;1.80;;;;;;;;;;7375860;19;19999;-84
2022/06/16 16:31:20;;;;;;;7.20;2.00;;;;;;;;;;7376385;19;20257;-84
2022/06/16 16:33:46;;;;;;;9.90;2.00;;;;;;;;;;7339659;19;20439;-83
2022/06/16 16:36:17;;;;;;;7.88;2.03;;;;;;;;;;7363702;19;20014;-85
2022/06/16 16:38:47;;;;;;;5.75;1.58;;;;;;;;;;7369217;19;20029;-84
2022/06/16 16:44:14;;;;;;;6.85;1.80;;;;;;;;;;7365791;19;20010;-81
2022/06/16 16:46:39;;;;;;;5.05;1.80;;;;;;;;;;7365445;19;20129;-84
2022/06/16 16:49:05;;;;;;;5.90;1.40;;;;;;;;;;7371657;19;20042;-84
2022/06/16 16:51:32;;;;;;;6.60;1.73;;;;;;;;;;7377213;19;20149;-83
2022/06/16 16:53:57;;;;;;;6.63;1.65;;;;;;;;;;7375233;19;20019;-82
2022/06/16 16:56:25;;;;;;;6.68;2.10;;;;;;;;;;7378665;19;20011;-83
2022/06/16 16:58:54;;;;;;;5.53;1.73;;;;;;;;;;7382717;19;20006;-84
2022/06/16 17:01:20;;;;;;;5.78;1.88;;;;;;;;;;7374658;19;20118;-84
2022/06/16 17:03:45;;;;;;;11.05;2.08;;;;;;;;;;7370268;19;20026;-83
2022/06/16 17:06:11;;;;;;;5.00;1.80;;;;;;;;;;7375966;19;20018;-83
2022/06/16 17:08:37;;;;;;;5.75;1.67;;;;;;;;;;7366426;19;20019;-81
2022/06/16 17:13:47;;;;;;;4.95;1.40;;;;;;;;;;7376455;19;20019;-83
2022/06/16 17:16:12;;;;;;;7.10;1.83;;;;;;;;;;7376883;19;20014;-81
2022/06/16 17:18:38;;;;;;;7.05;1.98;;;;;;;;;;7372798;19;20240;-82
2022/06/16 17:21:03;;;;;;;12.02;2.10;;;;;;;;;;7380460;19;20102;-83
2022/06/16 17:23:29;;;;;;;5.95;1.63;;;;;;;;;;7372385;19;20311;-83
2022/06/16 17:25:55;;;;;;;5.05;2.00;;;;;;;;;;7381283;19;20014;-82
2022/06/16 17:28:20;;;;;;;6.87;1.93;;;;;;;;;;7377277;19;20082;-86
2022/06/16 17:30:45;;;;;;;7.27;1.90;;;;;;;;;;7373564;19;20455;-83
2022/06/16 17:33:11;;;;;;;5.97;1.73;;;;;;;;;;7374016;19;20841;-84
2022/06/16 17:35:40;;;;;;;7.57;1.60;;;;;;;;;;7370821;19;20021;-82
2022/06/16 17:38:05;;;;;;;5.63;1.63;;;;;;;;;;7375083;19;20025;-79
2022/06/16 17:40:31;;;;;;;6.65;1.40;;;;;;;;;;7377054;19;19995;-83
2022/06/16 17:42:57;;;;;;;7.60;2.05;;;;;;;;;;7376601;19;20011;-83
2022/06/16 17:45:22;;;;;;;10.05;1.98;;;;;;;;;;7372825;19;20058;-83
2022/06/16 17:47:48;;;;;;;9.18;2.10;;;;;;;;;;7340495;19;20017;-84
2022/06/16 17:50:13;;;;;;;5.80;1.87;;;;;;;;;;7347380;19;20070;-84
2022/06/16 18:00:52;;;;;;;7.88;1.80;;;;;;;;;;7375000;19;20449;-83
2022/06/16 18:03:18;;;;;;;6.93;1.70;;;;;;;;;;7376392;19;20011;-83
2022/06/16 18:05:43;;;;;;;11.18;2.28;;;;;;;;;;7352866;19;20116;-82
2022/06/16 18:08:11;;;;;;;8.30;2.20;;;;;;;;;;7358592;19;20014;-82
2022/06/16 18:10:36;;;;;;;8.20;1.80;;;;;;;;;;7364220;19;19998;-82
2022/06/16 18:13:02;;;;;;;9.18;1.90;;;;;;;;;;7360992;19;20720;-83
2022/06/16 18:15:27;;;;;;;4.45;1.92;;;;;;;;;;7370034;19;20550;-82
2022/06/16 18:17:54;;;;;;;6.47;1.92;;;;;;;;;;7382295;19;20031;-81
2022/06/16 18:20:20;;;;;;;5.70;2.33;;;;;;;;;;7381879;19;20007;-82
2022/06/16 18:22:46;;;;;;;9.38;1.90;;;;;;;;;;7369232;19;20053;-81
2022/06/16 18:25:16;;;;;;;5.85;2.00;;;;;;;;;;7373451;19;20086;-82
2022/06/16 18:27:42;;;;;;;6.03;2.10;;;;;;;;;;7375883;19;20022;-82
2022/06/16 18:30:10;;;;;;;5.88;1.88;;;;;;;;;;7361018;19;20329;-83
2022/06/16 18:32:35;;;;;;;6.38;2.45;;;;;;;;;;7374032;19;20093;-83
2022/06/16 18:35:00;;;;;;;7.80;3.30;;;;;;;;;;7357733;19;20006;-83
2022/06/16 18:37:25;;;;;;;5.57;1.93;;;;;;;;;;7369192;19;20447;-83
2022/06/16 18:39:50;;;;;;;6.40;1.67;;;;;;;;;;7378515;19;20777;-82
2022/06/16 18:42:16;;;;;;;6.73;2.40;;;;;;;;;;7372478;19;20034;-82
2022/06/16 18:44:42;;;;;;;7.60;2.10;;;;;;;;;;7375566;19;20340;-82
2022/06/16 18:47:33;;;;;;;6.75;1.90;;;;;;;;;;7378122;19;20040;-83
2022/06/16 18:49:59;;;;;;;6.10;1.90;;;;;;;;;;7379194;19;20009;-83
2022/06/16 18:52:26;;;;;;;5.65;2.50;;;;;;;;;;7371831;19;20102;-83
2022/06/16 18:54:52;;;;;;;8.30;2.70;;;;;;;;;;7376247;19;20094;-83
2022/06/16 18:57:18;;;;;;;6.90;2.30;;;;;;;;;;7379218;19;20011;-83
2022/06/16 18:59:44;;;;;;;7.78;2.08;;;;;;;;;;7376252;19;20715;-83
2022/06/16 19:02:35;;;;;;;8.82;2.20;;;;;;;;;;7372807;19;20321;-82
2022/06/16 19:05:02;;;;;;;8.88;2.35;;;;;;;;;;7376367;19;20845;-83
2022/06/16 19:07:28;;;;;;;6.88;1.85;;;;;;;;;;7369445;19;20625;-83
2022/06/16 19:09:54;;;;;;;7.32;2.03;;;;;;;;;;7374025;19;20030;-83
2022/06/16 19:12:21;;;;;;;5.47;2.22;;;;;;;;;;7374325;19;20316;-82
2022/06/16 19:14:47;;;;;;;6.15;1.98;;;;;;;;;;7369678;19;20007;-82
2022/06/16 19:17:15;;;;;;;6.07;1.88;;;;;;;;;;7375737;19;20022;-82
2022/06/16 19:19:42;;;;;;;5.50;2.10;;;;;;;;;;7373213;19;20007;-82
2022/06/16 19:22:07;;;;;;;7.30;2.00;;;;;;;;;;7367742;19;20010;-82
2022/06/16 19:24:32;;;;;;;7.47;2.00;;;;;;;;;;7359685;19;20002;-82
2022/06/16 19:26:59;;;;;;;7.73;2.30;;;;;;;;;;7369721;19;20091;-83
2022/06/16 19:29:24;;;;;;;7.10;1.92;;;;;;;;;;7361009;19;20293;-83
2022/06/16 19:31:49;;;;;;;6.20;1.95;;;;;;;;;;7375531;19;20023;-83
2022/06/16 19:34:14;;;;;;;5.43;2.07;;;;;;;;;;7359101;19;20031;-83
2022/06/16 19:36:41;;;;;;;6.13;2.13;;;;;;;;;;7371127;19;20252;-83
2022/06/16 19:39:09;;;;;;;6.22;1.90;;;;;;;;;;7332971;19;20161;-81
2022/06/16 19:41:37;;;;;;;9.10;2.65;;;;;;;;;;7376584;19;20031;-81
2022/06/16 19:52:20;;;;;;;5.43;1.83;;;;;;;;;;7376866;19;20027;-81
2022/06/16 19:54:45;;;;;;;7.38;2.83;;;;;;;;;;7384856;19;20021;-81
2022/06/16 19:57:11;;;;;;;7.03;2.45;;;;;;;;;;7382758;19;19999;-81
2022/06/16 19:59:37;;;;;;;6.93;2.38;;;;;;;;;;7376669;19;20043;-81
2022/06/16 20:02:05;;;;;;;6.07;2.10;;;;;;;;;;7381141;19;19998;-81
2022/06/16 20:04:30;;;;;;;7.75;2.38;;;;;;;;;;7380352;19;20411;-81
2022/06/16 20:06:55;;;;;;;7.38;2.22;;;;;;;;;;7373962;19;20023;-81
2022/06/16 20:09:22;;;;;;;6.00;2.40;;;;;;;;;;7382761;19;20030;-80
2022/06/16 20:11:47;;;;;;;9.30;2.15;;;;;;;;;;7382295;19;20022;-81
2022/06/16 20:14:12;;;;;;;10.02;2.50;;;;;;;;;;7377544;19;20018;-80
2022/06/16 20:16:38;;;;;;;7.30;2.50;;;;;;;;;;7379052;19;20019;-81
2022/06/16 20:19:04;;;;;;;8.77;2.30;;;;;;;;;;7380850;19;20223;-80
2022/06/16 20:21:29;;;;;;;9.05;2.55;;;;;;;;;;7374554;19;20014;-80
2022/06/16 20:23:54;;;;;;;7.80;2.42;;;;;;;;;;7380230;19;19998;-80
2022/06/16 20:26:20;;;;;;;6.27;2.07;;;;;;;;;;7378392;19;20458;-81
2022/06/16 20:28:46;;;;;;;6.80;2.53;;;;;;;;;;7379057;19;20011;-81
2022/06/16 20:31:12;;;;;;;9.35;2.70;;;;;;;;;;7379175;19;20033;-79
2022/06/16 20:33:38;;;;;;;9.43;2.58;;;;;;;;;;7383157;19;20035;-80
2022/06/16 20:36:03;;;;;;;7.63;2.60;;;;;;;;;;7381957;19;19991;-80
2022/06/16 20:38:29;;;;;;;7.45;2.63;;;;;;;;;;7379263;19;20259;-80
2022/06/16 20:40:55;;;;;;;5.23;2.57;;;;;;;;;;7382142;19;20086;-80
2022/06/16 20:43:21;;;;;;;5.82;2.22;;;;;;;;;;7384273;19;20939;-81
2022/06/16 20:45:47;;;;;;;6.07;2.28;;;;;;;;;;7379803;19;20010;-82
2022/06/16 20:48:16;;;;;;;8.25;2.95;;;;;;;;;;7371928;19;20017;-79
2022/06/16 20:50:41;;;;;;;6.53;2.70;;;;;;;;;;7383480;19;20043;-79
2022/06/16 20:53:10;;;;;;;6.00;2.13;;;;;;;;;;7377002;19;20010;-79
2022/06/16 20:55:35;;;;;;;6.68;2.38;;;;;;;;;;7382450;19;20243;-79
2022/06/16 21:03:28;;;;;;;7.45;2.40;;;;;;;;;;7378193;19;20473;-79
2022/06/16 21:05:54;;;;;;;6.05;2.42;;;;;;;;;;7376091;19;20011;-80
2022/06/16 21:08:21;;;;;;;5.88;2.53;;;;;;;;;;7370180;19;20006;-79
2022/06/16 21:10:46;;;;;;;7.70;2.85;;;;;;;;;;7374667;19;20011;-81
2022/06/16 21:13:11;;;;;;;8.68;2.30;;;;;;;;;;7369088;19;20006;-81
2022/06/16 21:15:37;;;;;;;7.10;2.47;;;;;;;;;;7373458;19;20011;-79
2022/06/16 21:18:03;;;;;;;8.73;2.20;;;;;;;;;;7383921;19;20010;-80
2022/06/16 21:20:31;;;;;;;10.68;2.58;;;;;;;;;;7380939;19;20056;-80
2022/06/16 21:22:56;;;;;;;4.65;2.05;;;;;;;;;;7375579;19;20839;-79
2022/06/16 21:25:23;;;;;;;7.68;2.33;;;;;;;;;;7383317;19;19999;-79
2022/06/16 21:27:48;;;;;;;8.02;2.70;;;;;;;;;;7380070;19;20341;-80
2022/06/16 21:30:15;;;;;;;5.53;2.17;;;;;;;;;;7377289;19;20021;-78
2022/06/16 21:32:41;;;;;;;6.60;2.50;;;;;;;;;;7383221;19;20119;-79
2022/06/16 21:35:07;;;;;;;6.30;2.65;;;;;;;;;;7382212;19;20056;-81
2022/06/16 21:37:33;;;;;;;7.05;2.65;;;;;;;;;;7373253;19;20002;-78
2022/06/16 21:39:59;;;;;;;6.45;2.90;;;;;;;;;;7376747;19;20014;-78
2022/06/16 21:42:28;;;;;;;5.75;2.20;;;;;;;;;;7380557;19;20013;-79
2022/06/16 21:44:53;;;;;;;7.15;2.45;;;;;;;;;;7378667;19;20051;-79
2022/06/16 21:47:24;;;;;;;9.48;2.50;;;;;;;;;;7375998;19;19999;-79
2022/06/16 21:49:52;;;;;;;6.00;2.40;;;;;;;;;;7375927;19;20011;-79
2022/06/16 21:52:19;;;;;;;5.75;2.22;;;;;;;;;;7381534;19;20003;-79
2022/06/16 21:54:44;;;;;;;9.57;2.50;;;;;;;;;;7369481;19;20107;-79
2022/06/16 21:57:10;;;;;;;11.77;2.73;;;;;;;;;;7372232;19;20010;-79
2022/06/16 21:59:35;;;;;;;7.40;2.55;;;;;;;;;;7373613;19;20259;-79
2022/06/16 22:02:00;;;;;;;5.80;2.25;;;;;;;;;;7372059;19;20070;-80
2022/06/16 22:04:26;;;;;;;6.05;2.70;;;;;;;;;;7376466;19;20006;-79
2022/06/16 22:06:51;;;;;;;9.35;2.47;;;;;;;;;;7367327;19;20014;-79
2022/06/16 22:09:18;;;;;;;8.20;2.90;;;;;;;;;;7359712;19;20082;-81
2022/06/16 22:17:19;;;;;;;6.38;2.50;;;;;;;;;;7373094;19;20005;-79
2022/06/16 22:19:44;;;;;;;7.85;2.50;;;;;;;;;;7364027;19;20333;-79
2022/06/16 22:22:10;;;;;;;6.47;2.83;;;;;;;;;;7363514;19;20014;-79
2022/06/16 22:24:35;;;;;;;7.55;3.33;;;;;;;;;;7370444;19;20266;-79
2022/06/16 22:27:00;;;;;;;7.50;2.93;;;;;;;;;;7368637;19;20431;-80
2022/06/16 22:29:26;;;;;;;6.27;2.70;;;;;;;;;;7369799;19;20010;-79
2022/06/16 22:31:51;;;;;;;9.50;3.10;;;;;;;;;;7371050;19;20404;-80
2022/06/16 22:34:17;;;;;;;5.78;2.78;;;;;;;;;;7374915;19;20014;-79
2022/06/16 22:36:44;;;;;;;6.47;2.40;;;;;;;;;;7370146;19;20015;-78
2022/06/16 22:39:09;;;;;;;6.28;2.65;;;;;;;;;;7377100;19;19999;-79
2022/06/16 22:41:37;;;;;;;6.43;2.63;;;;;;;;;;7373916;19;20034;-79
2022/06/16 22:44:03;;;;;;;7.47;2.95;;;;;;;;;;7371681;19;20003;-79
2022/06/16 22:46:34;;;;;;;7.40;2.95;;;;;;;;;;7373217;19;20929;-79
2022/06/16 22:49:00;;;;;;;7.20;2.80;;;;;;;;;;7372825;19;20014;-79
2022/06/16 22:51:25;;;;;;;7.18;3.17;;;;;;;;;;7377798;19;20014;-80
2022/06/16 22:56:18;;;;;;;8.90;3.08;;;;;;;;;;7369203;19;20012;-78
2022/06/16 22:56:36;;;;;;;7.90;3.35;;;;;;;;;;7367969;19;20488;-78
2022/06/16 22:59:02;;;;;;;8.98;3.10;;;;;;;;;;7367475;19;20034;-78
2022/06/16 23:01:28;;;;;;;9.60;3.20;;;;;;;;;;7370730;19;19994;-79
2022/06/16 23:03:54;;;;;;;6.78;2.80;;;;;;;;;;7362971;19;20025;-81
2022/06/16 23:06:21;;;;;;;9.30;3.30;;;;;;;;;;7360238;19;19994;-80
2022/06/16 23:08:51;;;;;;;5.88;2.80;;;;;;;;;;7360539;19;20022;-80
2022/06/16 23:11:16;;;;;;;9.05;2.80;;;;;;;;;;7365340;19;20030;-79
2022/06/16 23:13:41;;;;;;;6.80;2.53;;;;;;;;;;7367791;19;20044;-79
2022/06/16 23:16:09;;;;;;;8.82;3.53;;;;;;;;;;7367245;19;20010;-79
2022/06/16 23:18:36;;;;;;;7.28;3.15;;;;;;;;;;7371342;19;20596;-78
2022/06/16 23:21:02;;;;;;;11.90;3.60;;;;;;;;;;7376852;19;20014;-79
2022/06/16 23:23:29;;;;;;;7.97;3.28;;;;;;;;;;7368273;19;20134;-78
2022/06/16 23:25:55;;;;;;;8.95;3.22;;;;;;;;;;7367675;19;20043;-79
2022/06/16 23:28:20;;;;;;;7.22;2.65;;;;;;;;;;7364158;19;20296;-79
2022/06/16 23:30:47;;;;;;;5.53;3.08;;;;;;;;;;7358814;19;20010;-78
2022/06/16 23:33:13;;;;;;;8.43;3.30;;;;;;;;;;7361214;19;20022;-80
2022/06/16 23:35:39;;;;;;;10.70;3.20;;;;;;;;;;7379313;19;20492;-79
2022/06/16 23:38:05;;;;;;;7.25;2.92;;;;;;;;;;7376506;19;20005;-80
2022/06/16 23:40:30;;;;;;;9.07;3.30;;;;;;;;;;7364950;19;20010;-78
2022/06/16 23:42:57;;;;;;;9.32;3.22;;;;;;;;;;7365748;19;20335;-78
2022/06/16 23:45:22;;;;;;;8.63;3.72;;;;;;;;;;7364015;19;20454;-80
2022/06/16 23:50:37;;;;;;;7.30;3.53;;;;;;;;;;7369642;19;20022;-81
2022/06/16 23:53:03;;;;;;;7.55;3.22;;;;;;;;;;7364871;19;20026;-80
2022/06/16 23:55:29;;;;;;;11.52;3.53;;;;;;;;;;7363839;19;20010;-80
2022/06/16 23:57:54;;;;;;;9.10;3.45;;;;;;;;;;7370142;19;19999;-80
